Time;durP1;ratioP1;P1;durP2;ratioP2;P2;SDS_P1;SDS_P2;PMS_P1;PMS_P2;Temp;Humidity;BMP_temperature;BMP_pressure;BME280_temperature;BME280_humidity;BME280_pressure;Samples;Min_cycle;Max_cycle;Signal;HPM_P1;HPM_P2
2022/10/13 00:01:14;;;;;;;18.00;9.82;;;;;;;11.62;100.00;101800.25;5084456;28;20020;-65
2022/10/13 00:03:40;;;;;;;25.55;11.25;;;;;;;11.62;100.00;101802.91;5082528;28;20043;-66
2022/10/13 00:06:08;;;;;;;20.05;10.73;;;;;;;11.64;100.00;101803.84;5076915;28;20387;-66
2022/10/13 00:08:34;;;;;;;18.77;10.20;;;;;;;11.65;100.00;101805.63;5090091;28;20024;-66
2022/10/13 00:11:00;;;;;;;23.83;10.45;;;;;;;11.66;100.00;101804.78;5086384;28;20032;-65
2022/10/13 00:13:26;;;;;;;25.58;10.45;;;;;;;11.68;100.00;101797.81;5085391;28;20384;-66
2022/10/13 00:15:52;;;;;;;24.48;10.90;;;;;;;11.69;100.00;101802.22;5089428;28;20063;-66
2022/10/13 00:18:17;;;;;;;23.83;11.73;;;;;;;11.69;100.00;101799.56;5085298;28;20051;-67
2022/10/13 00:20:48;;;;;;;17.77;10.68;;;;;;;11.70;100.00;101796.09;5093203;28;20036;-67
2022/10/13 00:23:14;;;;;;;24.27;11.02;;;;;;;11.70;100.00;101790.81;5083854;28;20062;-66
2022/10/13 00:25:44;;;;;;;17.95;10.70;;;;;;;11.70;100.00;101784.66;5093749;28;20070;-66
2022/10/13 00:28:10;;;;;;;22.52;11.25;;;;;;;11.69;100.00;101789.03;5093531;28;20443;-67
2022/10/13 00:30:37;;;;;;;18.88;11.43;;;;;;;11.69;100.00;101793.41;5083028;28;20027;-66
2022/10/13 00:33:03;;;;;;;22.17;11.60;;;;;;;11.67;100.00;101796.03;5080340;28;20035;-66
2022/10/13 00:35:28;;;;;;;27.10;13.20;;;;;;;11.68;100.00;101792.53;5089437;28;20028;-66
2022/10/13 00:37:54;;;;;;;22.13;11.65;;;;;;;11.70;100.00;101795.22;5077128;28;20077;-65
2022/10/13 00:40:19;;;;;;;24.75;12.55;;;;;;;11.69;100.00;101789.03;5080634;28;20152;-65
2022/10/13 00:42:44;;;;;;;19.88;12.38;;;;;;;11.73;100.00;101800.56;5090392;28;20456;-65
2022/10/13 00:45:25;;;;;;;23.40;12.80;;;;;;;11.72;100.00;101799.69;5079288;28;20360;-66
2022/10/13 00:48:00;;;;;;;19.92;12.20;;;;;;;11.72;100.00;101806.69;5080961;28;20032;-66
2022/10/13 00:50:36;;;;;;;26.27;13.57;;;;;;;11.73;100.00;101803.19;5092548;28;20429;-66
2022/10/13 00:53:02;;;;;;;27.60;12.45;;;;;;;11.71;100.00;101799.66;5088403;28;20074;-66
2022/10/13 00:55:32;;;;;;;22.95;12.40;;;;;;;11.72;100.00;101799.69;5086236;28;20119;-66
2022/10/13 00:58:00;;;;;;;25.63;12.95;;;;;;;11.70;100.00;101801.38;5080764;28;20032;-65
2022/10/13 01:00:26;;;;;;;23.60;13.90;;;;;;;11.68;100.00;101805.72;5083671;28;20086;-66
2022/10/13 01:02:52;;;;;;;27.00;13.75;;;;;;;11.66;100.00;101799.50;5080237;28;20175;-66
2022/10/13 01:05:19;;;;;;;26.02;12.82;;;;;;;11.67;100.00;101798.66;5085920;28;20051;-66
2022/10/13 01:07:47;;;;;;;27.77;12.57;;;;;;;11.66;100.00;101794.22;5082168;28;20471;-66
2022/10/13 01:10:23;;;;;;;29.77;13.68;;;;;;;11.65;100.00;101784.53;5090476;28;20035;-66
2022/10/13 01:13:09;;;;;;;27.17;14.35;;;;;;;11.66;100.00;101788.94;5092105;28;20105;-65
2022/10/13 01:15:45;;;;;;;26.98;13.77;;;;;;;11.65;100.00;101795.06;5078973;28;20020;-67
2022/10/13 01:18:35;;;;;;;28.00;13.40;;;;;;;11.63;100.00;101783.59;5080933;28;20364;-65
2022/10/13 01:21:06;;;;;;;29.52;14.13;;;;;;;11.61;100.00;101775.66;5080420;28;20031;-66
2022/10/13 01:24:01;;;;;;;28.23;14.30;;;;;;;11.60;100.00;101778.25;5078527;28;20056;-66
2022/10/13 01:26:54;;;;;;;25.00;14.68;;;;;;;11.57;100.00;101778.16;5080039;28;20395;-66
2022/10/13 01:29:45;;;;;;;30.33;15.27;;;;;;;11.55;100.00;101779.88;5081426;28;20452;-66
2022/10/13 01:32:29;;;;;;;31.42;15.85;;;;;;;11.52;100.00;101777.16;5085901;28;20082;-66
2022/10/13 01:35:40;;;;;;;29.23;15.20;;;;;;;11.50;100.00;101784.09;5087746;28;20024;-66
2022/10/13 01:38:14;;;;;;;32.40;16.30;;;;;;;11.47;100.00;101783.16;5086012;28;20052;-66
2022/10/13 01:41:16;;;;;;;29.83;15.48;;;;;;;11.45;100.00;101782.25;5089927;28;20038;-65
2022/10/13 01:44:29;;;;;;;36.47;16.27;;;;;;;11.44;100.00;101772.53;5086370;28;20036;-66
2022/10/13 01:46:55;;;;;;;32.17;14.80;;;;;;;11.44;100.00;101771.66;5053732;28;20518;-66
2022/10/13 01:49:26;;;;;;;39.13;18.40;;;;;;;11.44;100.00;101776.94;5084435;28;20026;-66
2022/10/13 01:51:54;;;;;;;36.10;17.50;;;;;;;11.45;100.00;101774.34;5080309;28;20032;-66
2022/10/13 01:54:19;;;;;;;39.05;18.25;;;;;;;11.44;100.00;101764.63;5093464;28;20042;-66
2022/10/13 01:56:53;;;;;;;36.75;17.83;;;;;;;11.45;100.00;101736.56;5089273;28;20056;-66
2022/10/13 01:59:18;;;;;;;38.90;18.63;;;;;;;11.45;100.00;101742.72;5096406;28;20028;-66
2022/10/13 02:01:55;;;;;;;41.53;18.58;;;;;;;11.45;100.00;101747.97;5095676;28;20028;-66
2022/10/13 02:04:35;;;;;;;33.53;19.88;;;;;;;11.45;100.00;101740.06;5094151;28;20537;-66
2022/10/13 02:07:09;;;;;;;35.60;18.90;;;;;;;11.46;100.00;101739.22;5092069;28;20040;-66
2022/10/13 02:09:56;;;;;;;41.55;19.30;;;;;;;11.46;100.00;101715.50;5091311;28;20020;-66
2022/10/13 02:13:04;;;;;;;35.38;18.45;;;;;;;11.46;100.00;101715.50;5093510;28;20031;-66
2022/10/13 02:15:45;;;;;;;53.35;21.23;;;;;;;11.45;100.00;101713.72;4998630;28;20065;-65
2022/10/13 02:18:13;;;;;;;49.25;21.08;;;;;;;11.49;100.00;101727.88;5074890;28;20446;-66
2022/10/13 02:20:44;;;;;;;46.45;22.38;;;;;;;11.51;100.00;101730.56;5083708;28;20052;-66
2022/10/13 02:23:13;;;;;;;44.10;21.45;;;;;;;11.51;100.00;101726.16;5087712;28;20036;-66
2022/10/13 02:25:40;;;;;;;55.15;22.25;;;;;;;11.50;100.00;101721.72;5094138;28;20069;-66
2022/10/13 02:28:06;;;;;;;55.90;23.73;;;;;;;11.53;100.00;101729.75;5085888;28;20028;-66
2022/10/13 02:30:32;;;;;;;50.42;23.38;;;;;;;11.57;100.00;101714.88;5092589;28;20027;-66
2022/10/13 02:32:59;;;;;;;40.58;20.60;;;;;;;11.58;100.00;101714.03;5077665;28;20464;-65
2022/10/13 02:35:24;;;;;;;41.15;22.33;;;;;;;11.59;100.00;101710.56;5086596;28;20039;-65
2022/10/13 02:37:50;;;;;;;55.70;23.55;;;;;;;11.61;100.00;101709.75;5085250;28;20036;-65
2022/10/13 02:40:15;;;;;;;57.38;23.73;;;;;;;11.64;100.00;101708.94;5078428;28;20043;-65
2022/10/13 02:42:40;;;;;;;52.78;23.85;;;;;;;11.68;100.00;101705.53;5092496;28;20035;-65
2022/10/13 02:45:07;;;;;;;55.13;23.88;;;;;;;11.71;100.00;101708.25;5094876;28;20039;-65
2022/10/13 02:47:32;;;;;;;45.65;23.38;;;;;;;11.70;100.00;101701.19;5094554;28;20020;-65
2022/10/13 02:49:57;;;;;;;51.50;23.90;;;;;;;11.76;100.00;101710.97;5093549;28;20024;-66
2022/10/13 02:52:23;;;;;;;51.17;23.73;;;;;;;11.76;100.00;101701.34;5079797;28;20028;-66
2022/10/13 02:54:48;;;;;;;53.10;25.40;;;;;;;11.77;100.00;101703.13;5094972;28;20250;-65
2022/10/13 02:57:13;;;;;;;55.63;25.27;;;;;;;11.77;100.00;101702.22;5085052;28;20051;-65
2022/10/13 02:59:39;;;;;;;49.60;24.63;;;;;;;11.79;100.00;101701.41;5095440;28;20056;-66
2022/10/13 03:02:04;;;;;;;52.60;24.17;;;;;;;11.81;100.00;101697.09;5087992;28;20056;-66
2022/10/13 03:04:29;;;;;;;57.70;24.48;;;;;;;11.82;100.00;101696.22;5094473;28;20031;-66
2022/10/13 03:06:54;;;;;;;45.10;23.40;;;;;;;11.87;100.00;101690.16;5093914;28;20031;-66
2022/10/13 03:09:20;;;;;;;44.33;23.20;;;;;;;11.88;100.00;101691.94;5094749;28;20028;-66
2022/10/13 03:11:45;;;;;;;52.15;23.90;;;;;;;11.88;100.00;101684.94;5089518;28;20024;-66
2022/10/13 03:14:10;;;;;;;43.88;21.20;;;;;;;11.89;100.00;101680.56;5094122;28;20097;-65
2022/10/13 03:16:36;;;;;;;40.70;21.23;;;;;;;11.87;100.00;101675.25;5090215;28;20443;-66
2022/10/13 03:19:01;;;;;;;46.22;20.73;;;;;;;11.87;100.00;101666.41;5085188;28;20028;-66
2022/10/13 03:21:26;;;;;;;47.38;21.73;;;;;;;11.87;100.00;101666.41;5083826;28;20337;-67
2022/10/13 03:23:52;;;;;;;41.97;20.55;;;;;;;11.86;100.00;101664.66;5086948;28;20020;-68
2022/10/13 03:26:17;;;;;;;39.35;20.25;;;;;;;11.87;100.00;101666.41;5078836;28;20048;-67
2022/10/13 03:28:48;;;;;;;46.47;21.15;;;;;;;11.88;100.00;101669.13;5090021;28;20056;-64
2022/10/13 03:31:13;;;;;;;42.33;19.58;;;;;;;11.89;100.00;101664.72;5092777;28;20405;-66
2022/10/13 03:33:39;;;;;;;45.00;20.10;;;;;;;11.89;100.00;101664.72;5088760;28;20063;-65
2022/10/13 03:36:06;;;;;;;41.10;19.23;;;;;;;11.90;100.00;101659.50;5084426;28;20120;-65
2022/10/13 03:38:32;;;;;;;42.75;19.73;;;;;;;11.89;100.00;101652.41;5077396;28;20025;-65
2022/10/13 03:41:07;;;;;;;46.15;19.10;;;;;;;11.90;100.00;101662.13;5093848;28;20460;-65
2022/10/13 03:43:32;;;;;;;43.65;20.45;;;;;;;11.90;100.00;101655.97;5089481;28;20024;-64
2022/10/13 03:46:00;;;;;;;43.28;19.98;;;;;;;11.90;100.00;101637.50;5090298;28;20036;-65
2022/10/13 03:48:26;;;;;;;39.95;18.63;;;;;;;11.89;100.00;101611.97;5092277;28;20016;-65
2022/10/13 03:50:52;;;;;;;34.55;19.52;;;;;;;11.86;100.00;101630.38;5088568;28;21360;-65
2022/10/13 03:53:17;;;;;;;39.53;19.40;;;;;;;11.86;100.00;101656.75;5084390;28;20024;-65
2022/10/13 03:55:48;;;;;;;44.25;20.55;;;;;;;11.86;100.00;101659.38;5074450;28;20052;-65
2022/10/13 03:58:13;;;;;;;38.22;18.80;;;;;;;11.85;100.00;101662.88;5084076;28;20028;-66
2022/10/13 04:00:39;;;;;;;60.13;21.98;;;;;;;11.88;100.00;101661.22;5088016;28;20027;-65
2022/10/13 04:03:04;;;;;;;48.45;21.35;;;;;;;11.89;100.00;101654.19;5091287;28;20344;-65
2022/10/13 04:05:32;;;;;;;39.70;20.08;;;;;;;11.93;100.00;101661.31;5091089;28;20032;-66
2022/10/13 04:07:58;;;;;;;54.50;22.10;;;;;;;11.95;100.00;101665.81;5087005;28;20480;-65
2022/10/13 04:10:23;;;;;;;43.83;21.75;;;;;;;11.97;100.00;101663.19;5078534;28;20081;-65
2022/10/13 04:12:48;;;;;;;54.05;22.17;;;;;;;12.00;100.00;101672.94;5079099;28;20115;-65
2022/10/13 04:15:14;;;;;;;46.25;22.10;;;;;;;12.01;100.00;101667.69;5075831;28;20024;-65
2022/10/13 04:17:39;;;;;;;47.47;20.33;;;;;;;12.02;100.00;101666.84;5091218;28;20035;-65
2022/10/13 04:20:05;;;;;;;43.50;20.60;;;;;;;12.03;100.00;101658.09;5082163;28;20082;-65
2022/10/13 04:22:31;;;;;;;51.97;22.50;;;;;;;12.02;100.00;101665.94;5079298;28;20024;-65
2022/10/13 04:24:56;;;;;;;51.53;21.98;;;;;;;12.02;100.00;101666.84;5092790;28;20141;-65
2022/10/13 04:27:22;;;;;;;49.67;21.60;;;;;;;12.05;100.00;101660.75;5091669;28;20031;-66
2022/10/13 04:29:48;;;;;;;39.28;20.38;;;;;;;12.05;100.00;101648.44;5084651;28;20028;-65
2022/10/13 04:32:13;;;;;;;52.67;21.30;;;;;;;12.04;100.00;101654.56;5090758;28;20028;-66
2022/10/13 04:34:38;;;;;;;51.08;22.95;;;;;;;12.03;100.00;101649.25;5092897;28;20028;-65
2022/10/13 04:37:04;;;;;;;48.30;23.63;;;;;;;12.03;100.00;101646.63;5077271;28;20085;-66
2022/10/13 04:39:29;;;;;;;42.25;22.58;;;;;;;12.02;100.00;101651.03;5090491;28;20111;-65
2022/10/13 04:41:54;;;;;;;46.95;21.50;;;;;;;12.03;100.00;101652.81;5087400;28;20032;-66
2022/10/13 04:44:20;;;;;;;46.42;23.00;;;;;;;12.02;100.00;101640.47;5083991;28;20052;-66
2022/10/13 04:46:46;;;;;;;53.60;21.70;;;;;;;12.01;100.00;101643.97;5080544;28;20024;-66
2022/10/13 04:49:11;;;;;;;53.05;21.52;;;;;;;12.03;100.00;101643.97;5087088;28;20028;-66
2022/10/13 04:51:36;;;;;;;61.38;25.33;;;;;;;12.03;100.00;101639.63;5081568;28;20027;-65
2022/10/13 04:54:04;;;;;;;55.53;23.33;;;;;;;12.02;100.00;101644.84;5091097;28;20115;-65
2022/10/13 04:56:30;;;;;;;50.15;22.70;;;;;;;12.02;100.00;101642.19;5092331;28;20118;-66
2022/10/13 04:58:56;;;;;;;42.25;22.27;;;;;;;12.02;100.00;101650.09;5086421;28;20111;-66
2022/10/13 05:01:23;;;;;;;51.97;23.73;;;;;;;12.00;100.00;101654.47;5078552;28;20024;-65
2022/10/13 05:03:51;;;;;;;55.05;22.25;;;;;;;11.98;100.00;101651.81;5081771;28;20028;-66
2022/10/13 05:06:24;;;;;;;50.78;22.40;;;;;;;11.96;100.00;101656.13;5089576;28;20487;-66
2022/10/13 05:08:50;;;;;;;55.15;22.27;;;;;;;11.96;100.00;101653.50;5092651;28;20196;-66
2022/10/13 05:11:18;;;;;;;54.83;22.92;;;;;;;11.94;100.00;101642.91;5082702;28;20058;-65
2022/10/13 05:13:44;;;;;;;50.15;22.58;;;;;;;11.92;100.00;101655.16;5086769;28;20056;-65
2022/10/13 05:16:12;;;;;;;54.92;23.60;;;;;;;11.93;100.00;101650.75;5085197;28;20055;-65
2022/10/13 05:18:37;;;;;;;51.42;22.48;;;;;;;11.92;100.00;101639.34;5082763;28;20025;-64
2022/10/13 05:21:12;;;;;;;45.58;22.42;;;;;;;11.93;100.00;101650.75;5082508;28;20032;-65
2022/10/13 05:23:38;;;;;;;56.40;23.23;;;;;;;11.93;100.00;101642.84;5083042;28;20020;-65
2022/10/13 05:26:10;;;;;;;55.05;23.33;;;;;;;11.92;100.00;101649.88;5093333;28;20028;-65
2022/10/13 05:28:36;;;;;;;56.97;24.25;;;;;;;11.92;100.00;101643.69;5090285;28;20024;-64
2022/10/13 05:31:21;;;;;;;53.83;22.88;;;;;;;11.92;100.00;101652.53;5091080;28;20039;-65
2022/10/13 05:33:48;;;;;;;53.45;23.00;;;;;;;11.94;100.00;101639.38;5085846;28;20389;-66
2022/10/13 05:36:26;;;;;;;57.03;23.90;;;;;;;11.96;100.00;101641.22;5086121;28;20468;-67
2022/10/13 05:38:54;;;;;;;49.65;23.02;;;;;;;11.98;100.00;101633.34;5089544;28;20479;-66
2022/10/13 05:41:21;;;;;;;61.38;22.33;;;;;;;11.99;100.00;101640.38;5086756;28;20036;-66
2022/10/13 05:43:46;;;;;;;52.92;23.08;;;;;;;12.00;100.00;101634.25;5075698;28;20021;-66
2022/10/13 05:46:12;;;;;;;53.72;22.58;;;;;;;12.04;100.00;101633.47;5076086;28;20372;-66
2022/10/13 05:48:38;;;;;;;54.50;23.63;;;;;;;12.03;100.00;101626.44;5084979;28;20020;-66
2022/10/13 05:51:11;;;;;;;52.78;24.30;;;;;;;12.06;100.00;101620.31;5083829;28;20418;-66
2022/10/13 05:53:41;;;;;;;56.17;23.58;;;;;;;12.08;100.00;101624.75;5084060;28;20032;-66
2022/10/13 05:56:12;;;;;;;57.72;24.23;;;;;;;12.07;100.00;101604.53;5079947;28;20044;-66
2022/10/13 05:58:44;;;;;;;58.97;24.38;;;;;;;12.10;100.00;101596.69;5090264;28;20545;-66
2022/10/13 06:01:13;;;;;;;47.72;23.45;;;;;;;12.11;100.00;101598.47;5076096;28;20052;-67
2022/10/13 06:03:41;;;;;;;57.72;24.85;;;;;;;12.12;100.00;101588.81;5076548;28;20040;-67
2022/10/13 06:06:06;;;;;;;64.15;24.45;;;;;;;12.14;100.00;101587.09;5072679;28;20543;-67
2022/10/13 06:08:32;;;;;;;54.90;24.75;;;;;;;12.17;100.00;101587.16;5072612;28;20158;-66
2022/10/13 06:10:57;;;;;;;58.97;23.48;;;;;;;12.17;100.00;101591.53;5071920;28;20103;-67
2022/10/13 06:13:22;;;;;;;57.70;23.42;;;;;;;12.14;100.00;101595.91;5072600;28;20185;-67
2022/10/13 06:15:48;;;;;;;61.08;24.20;;;;;;;12.19;100.00;101600.38;5072846;28;20025;-67
2022/10/13 06:18:13;;;;;;;60.47;24.50;;;;;;;12.20;100.00;101610.09;5076582;28;20028;-67
2022/10/13 06:20:38;;;;;;;62.10;24.58;;;;;;;12.19;100.00;101610.94;5089360;28;20907;-67
2022/10/13 06:23:04;;;;;;;61.35;24.95;;;;;;;12.18;100.00;101614.44;5081182;28;20036;-67
2022/10/13 06:25:29;;;;;;;63.58;25.63;;;;;;;12.20;100.00;101618.88;5080872;28;20029;-68
2022/10/13 06:27:59;;;;;;;58.30;25.92;;;;;;;12.21;100.00;101617.13;5090944;28;20051;-67
2022/10/13 06:30:25;;;;;;;63.55;25.88;;;;;;;12.23;100.00;101624.22;5081553;28;20043;-68
2022/10/13 06:32:53;;;;;;;59.15;26.42;;;;;;;12.25;100.00;101622.53;5075772;28;20028;-67
2022/10/13 06:35:18;;;;;;;65.90;26.75;;;;;;;12.28;100.00;101626.97;5079874;28;20086;-67
2022/10/13 06:37:45;;;;;;;60.53;24.55;;;;;;;12.28;100.00;101619.94;5081713;28;20021;-67
2022/10/13 06:40:10;;;;;;;65.60;27.10;;;;;;;12.30;100.00;101630.53;5074916;28;20096;-68
2022/10/13 06:42:36;;;;;;;58.83;25.88;;;;;;;12.32;100.00;101623.56;5086007;28;20100;-68
2022/10/13 06:45:02;;;;;;;58.50;26.13;;;;;;;12.33;100.00;101630.63;5087580;28;20409;-68
2022/10/13 06:47:27;;;;;;;69.50;27.40;;;;;;;12.33;100.00;101620.06;5077206;28;20028;-66
2022/10/13 06:49:53;;;;;;;61.95;26.98;;;;;;;12.37;100.00;101629.81;5084614;28;20020;-67
2022/10/13 06:52:18;;;;;;;58.05;27.05;;;;;;;12.39;100.00;101625.44;5095373;28;20112;-67
2022/10/13 06:54:44;;;;;;;61.10;28.02;;;;;;;12.40;100.00;101619.31;5095703;28;20073;-67
2022/10/13 06:57:09;;;;;;;67.70;28.88;;;;;;;12.42;100.00;101625.50;5088029;28;20051;-67
2022/10/13 06:59:35;;;;;;;66.97;27.85;;;;;;;12.43;100.00;101627.31;5094509;28;20023;-66
2022/10/13 07:02:00;;;;;;;61.70;27.83;;;;;;;12.45;100.00;101625.59;5091170;28;20151;-66
2022/10/13 07:04:27;;;;;;;60.38;28.23;;;;;;;12.48;100.00;101627.41;5094958;28;20413;-67
2022/10/13 07:06:52;;;;;;;57.78;26.98;;;;;;;12.48;100.00;101620.38;5095525;28;20020;-66
2022/10/13 07:09:19;;;;;;;59.90;29.25;;;;;;;12.49;100.00;101610.69;5095061;28;20039;-66
2022/10/13 07:11:45;;;;;;;65.43;29.73;;;;;;;12.49;100.00;101615.97;5095231;28;20035;-66
2022/10/13 07:14:11;;;;;;;57.38;28.27;;;;;;;12.50;100.00;101619.53;5093501;28;20025;-66
2022/10/13 07:16:36;;;;;;;62.40;28.85;;;;;;;12.54;100.00;101614.31;5075302;28;20036;-66
2022/10/13 07:19:02;;;;;;;60.33;27.08;;;;;;;12.51;100.00;101608.09;5076509;28;20025;-67
2022/10/13 07:21:27;;;;;;;51.78;26.92;;;;;;;12.53;100.00;101607.25;5078272;28;20028;-67
2022/10/13 07:23:52;;;;;;;50.08;26.88;;;;;;;12.53;100.00;101598.47;5091264;28;20028;-67
2022/10/13 07:26:18;;;;;;;56.38;27.83;;;;;;;12.59;100.00;101602.13;5076299;28;20440;-67
2022/10/13 07:28:43;;;;;;;56.03;25.08;;;;;;;12.60;100.00;101608.28;5075166;28;20054;-66
2022/10/13 07:31:10;;;;;;;51.10;26.10;;;;;;;12.60;100.00;101614.47;5073718;28;20024;-66
2022/10/13 07:33:37;;;;;;;55.38;26.25;;;;;;;12.62;100.00;101612.72;5074982;28;20020;-68
2022/10/13 07:36:03;;;;;;;55.80;25.55;;;;;;;12.61;100.00;101610.94;5075356;28;20021;-67
2022/10/13 07:38:28;;;;;;;50.28;24.67;;;;;;;12.62;100.00;101601.28;5076197;28;20032;-67
2022/10/13 07:40:54;;;;;;;52.63;24.92;;;;;;;12.62;100.00;101611.84;5076209;28;20434;-67
2022/10/13 07:43:19;;;;;;;46.40;24.08;;;;;;;12.63;100.00;101608.38;5077477;28;20434;-67
2022/10/13 07:45:45;;;;;;;48.50;23.67;;;;;;;12.66;100.00;101608.41;5086754;28;20055;-67
2022/10/13 07:48:11;;;;;;;50.88;23.30;;;;;;;12.67;100.00;101612.84;5093640;28;20035;-67
2022/10/13 07:50:36;;;;;;;52.25;24.30;;;;;;;12.67;100.00;101602.28;5094823;28;20077;-67
2022/10/13 07:53:02;;;;;;;48.97;22.35;;;;;;;12.71;100.00;101611.13;5094363;28;20028;-67
2022/10/13 07:55:27;;;;;;;35.92;19.23;;;;;;;12.72;100.00;101603.25;5094813;28;20385;-67
2022/10/13 07:57:53;;;;;;;40.80;21.45;;;;;;;12.72;100.00;101603.25;5089941;28;20479;-67
2022/10/13 08:00:18;;;;;;;38.80;21.52;;;;;;;12.75;100.00;101611.25;5092403;28;20027;-68
2022/10/13 08:02:43;;;;;;;38.80;20.10;;;;;;;12.74;100.00;101612.09;5076690;28;20037;-67
2022/10/13 08:05:09;;;;;;;43.10;20.58;;;;;;;12.77;100.00;101611.28;5074607;28;20048;-67
2022/10/13 08:07:36;;;;;;;39.03;19.65;;;;;;;12.80;100.00;101611.31;5074558;28;20129;-67
2022/10/13 08:10:02;;;;;;;35.13;20.10;;;;;;;12.81;100.00;101611.34;5090195;28;20028;-67
2022/10/13 08:12:28;;;;;;;35.20;17.88;;;;;;;12.85;100.00;101614.06;5094630;28;20517;-67
2022/10/13 08:14:53;;;;;;;33.97;19.13;;;;;;;12.84;100.00;101607.00;5087189;28;20052;-67
2022/10/13 08:17:18;;;;;;;36.50;18.27;;;;;;;12.84;100.00;101607.88;5085182;28;20103;-67
2022/10/13 08:19:44;;;;;;;46.08;18.83;;;;;;;12.87;100.00;101613.22;5094338;28;20063;-67
2022/10/13 08:22:10;;;;;;;31.55;19.00;;;;;;;12.86;100.00;101611.47;5094585;28;20031;-67
2022/10/13 08:24:35;;;;;;;35.60;18.60;;;;;;;12.88;100.00;101614.13;5094495;28;20086;-67
2022/10/13 08:27:00;;;;;;;37.05;18.92;;;;;;;12.87;100.00;101617.63;5093114;28;20504;-65
2022/10/13 08:29:26;;;;;;;38.45;20.17;;;;;;;12.94;100.00;101615.13;5093919;28;20031;-67
2022/10/13 08:31:52;;;;;;;37.42;20.10;;;;;;;12.99;100.00;101610.84;5089627;28;20020;-67
2022/10/13 08:34:17;;;;;;;37.28;19.50;;;;;;;13.04;100.00;101610.03;5086024;28;20027;-65
2022/10/13 08:36:43;;;;;;;42.17;20.30;;;;;;;13.04;100.00;101605.63;5094317;28;20380;-66
2022/10/13 08:39:09;;;;;;;43.78;21.50;;;;;;;13.08;100.00;101596.91;5093371;28;20071;-68
2022/10/13 08:41:39;;;;;;;35.35;20.83;;;;;;;13.05;100.00;101596.84;5093412;28;20093;-67
2022/10/13 08:44:16;;;;;;;46.55;20.88;;;;;;;13.08;100.00;101596.03;5094069;28;20031;-68
2022/10/13 08:46:51;;;;;;;33.67;19.83;;;;;;;13.15;100.00;101601.41;5094035;28;20383;-67
2022/10/13 08:49:16;;;;;;;38.67;20.05;;;;;;;13.09;100.00;101598.69;5094065;28;20012;-68
2022/10/13 08:51:42;;;;;;;38.92;20.48;;;;;;;13.09;100.00;101590.75;5094047;28;20034;-67
2022/10/13 08:54:13;;;;;;;37.78;19.80;;;;;;;13.09;100.00;101580.19;5093966;28;20119;-67
2022/10/13 08:56:38;;;;;;;35.22;19.55;;;;;;;13.09;100.00;101603.06;5093752;28;20101;-67
2022/10/13 08:59:04;;;;;;;38.95;21.65;;;;;;;13.12;100.00;101603.13;5093659;28;20483;-67
2022/10/13 09:01:33;;;;;;;36.50;20.33;;;;;;;13.13;100.00;101600.53;5092007;28;20062;-67
2022/10/13 09:04:25;;;;;;;35.90;20.10;;;;;;;13.20;100.00;101609.44;5091352;28;20527;-67
2022/10/13 09:07:21;;;;;;;41.75;20.10;;;;;;;13.27;100.00;101606.03;5092633;28;20071;-67
2022/10/13 09:09:50;;;;;;;33.67;18.23;;;;;;;13.35;100.00;101602.63;5092630;28;20031;-67
2022/10/13 09:12:20;;;;;;;32.60;17.33;;;;;;;13.38;100.00;101605.38;5093755;28;20507;-68
2022/10/13 09:15:00;;;;;;;32.13;15.65;;;;;;;13.38;100.00;101603.63;5089286;28;20073;-68
2022/10/13 09:17:27;;;;;;;37.40;17.75;;;;;;;13.38;100.00;101603.63;5073359;28;20036;-67
2022/10/13 09:20:23;;;;;;;26.38;16.73;;;;;;;13.47;100.00;101605.56;5073195;28;20016;-67
2022/10/13 09:23:04;;;;;;;27.23;16.33;;;;;;;13.44;100.00;101600.19;5071903;28;20028;-67
2022/10/13 09:25:39;;;;;;;35.58;17.90;;;;;;;13.42;100.00;101602.81;5073191;28;20028;-68
2022/10/13 09:28:14;;;;;;;31.85;17.15;;;;;;;13.43;100.00;101604.59;5073126;28;20030;-67
2022/10/13 09:30:48;;;;;;;35.90;19.58;;;;;;;13.46;100.00;101603.75;5080419;28;20089;-66
2022/10/13 09:33:20;;;;;;;30.35;17.38;;;;;;;13.45;100.00;101600.22;5092787;28;20035;-66
2022/10/13 09:36:01;;;;;;;32.50;19.52;;;;;;;13.44;100.00;101603.75;5092605;28;20438;-67
2022/10/13 09:38:27;;;;;;;33.78;20.85;;;;;;;13.40;100.00;101596.63;5091620;28;20124;-67
2022/10/13 09:41:07;;;;;;;39.83;22.00;;;;;;;13.44;100.00;101600.19;5091777;28;20384;-67
2022/10/13 09:43:55;;;;;;;46.00;22.25;;;;;;;13.42;100.00;101599.28;5091990;28;20073;-68
2022/10/13 09:46:20;;;;;;;37.70;21.88;;;;;;;13.45;100.00;101592.28;5065294;28;20044;-67
2022/10/13 09:48:52;;;;;;;38.33;21.08;;;;;;;13.48;100.00;101592.34;5072941;28;20024;-68
2022/10/13 09:51:40;;;;;;;40.90;22.05;;;;;;;13.51;100.00;101596.81;5072821;28;20020;-67
2022/10/13 09:54:24;;;;;;;35.20;21.00;;;;;;;13.58;100.00;101592.47;5072918;28;20540;-68
2022/10/13 09:57:00;;;;;;;38.13;21.85;;;;;;;13.60;100.00;101594.28;5072733;28;20504;-68
2022/10/13 09:59:39;;;;;;;37.17;22.50;;;;;;;13.66;100.00;101591.75;5072657;28;20066;-67
2022/10/13 10:02:36;;;;;;;39.75;21.65;;;;;;;13.68;100.00;101599.72;5088219;28;20020;-67
2022/10/13 10:05:19;;;;;;;40.20;21.90;;;;;;;13.61;100.00;101592.56;5072375;28;20072;-67
2022/10/13 10:07:45;;;;;;;37.90;22.58;;;;;;;13.64;100.00;101589.94;5072890;28;20024;-67
2022/10/13 10:10:33;;;;;;;33.05;20.70;;;;;;;13.73;100.00;101587.44;5072487;28;20013;-67
2022/10/13 10:12:59;;;;;;;39.90;22.52;;;;;;;13.77;100.00;101589.28;5073138;28;20032;-67
2022/10/13 10:15:35;;;;;;;43.25;23.92;;;;;;;13.85;100.00;101584.13;5075538;28;20357;-67
2022/10/13 10:18:11;;;;;;;47.20;24.60;;;;;;;13.79;100.00;101584.88;5076567;28;20083;-68
2022/10/13 10:20:43;;;;;;;49.20;25.00;;;;;;;13.77;100.00;101586.63;5076794;28;20060;-68
2022/10/13 10:23:25;;;;;;;36.13;23.00;;;;;;;13.92;100.00;101585.09;5076693;28;20046;-68
2022/10/13 10:25:58;;;;;;;45.28;24.50;;;;;;;13.95;100.00;101585.13;5076699;28;20035;-68
2022/10/13 10:28:42;;;;;;;40.60;24.67;;;;;;;14.02;100.00;101581.69;5076541;28;20506;-68
2022/10/13 10:31:16;;;;;;;46.65;22.48;;;;;;;14.04;100.00;101582.63;5080025;28;20024;-68
2022/10/13 10:33:47;;;;;;;36.92;21.45;;;;;;;14.00;100.00;101579.03;5076314;28;20024;-68
2022/10/13 10:36:20;;;;;;;38.20;21.40;;;;;;;14.04;100.00;101576.41;5076209;28;20024;-68
2022/10/13 10:39:00;;;;;;;34.92;20.98;;;;;;;14.01;100.00;101571.97;5076227;28;20032;-67
2022/10/13 10:41:49;;;;;;;36.25;22.10;;;;;;;14.02;100.00;101573.75;5076217;28;20028;-68
2022/10/13 10:44:20;;;;;;;36.25;20.90;;;;;;;14.04;100.00;101572.03;5076394;28;20069;-68
2022/10/13 10:46:48;;;;;;;39.28;22.60;;;;;;;14.05;100.00;101567.63;5091705;28;20024;-68
2022/10/13 10:49:24;;;;;;;39.65;22.58;;;;;;;13.99;100.00;101565.78;5078828;28;20016;-68
2022/10/13 10:51:50;;;;;;;31.80;20.58;;;;;;;13.96;100.00;101568.41;5091432;28;20111;-68
2022/10/13 10:54:26;;;;;;;44.15;22.70;;;;;;;13.94;100.00;101570.09;5094689;28;20036;-67
2022/10/13 10:57:03;;;;;;;34.38;22.02;;;;;;;13.97;100.00;101564.84;5088687;28;20049;-68
2022/10/13 11:00:03;;;;;;;37.00;23.13;;;;;;;13.97;100.00;101564.84;5089293;28;20032;-67
2022/10/13 11:02:38;;;;;;;36.75;24.13;;;;;;;13.92;100.00;101556.88;5088601;28;20066;-67
2022/10/13 11:05:03;;;;;;;44.47;23.25;;;;;;;13.88;100.00;101564.75;5076373;28;20506;-67
2022/10/13 11:07:29;;;;;;;35.25;21.25;;;;;;;13.87;100.00;101561.19;5095598;28;20028;-68
2022/10/13 11:09:56;;;;;;;34.72;20.50;;;;;;;13.83;100.00;101541.72;5095859;28;20073;-68
2022/10/13 11:12:22;;;;;;;37.28;21.60;;;;;;;13.80;100.00;101552.28;5090310;28;20063;-68
2022/10/13 11:14:53;;;;;;;40.50;21.45;;;;;;;13.76;100.00;101547.81;5093559;28;20036;-68